Terminal Aerodrome Forecast
Issued by NWS Central Illinois

Home | Current Version | Previous Version | Text Only | Print | Product List | Glossary On
Versions: 1 2 3 4 5 6 7 8 9 10 11 12 13 14 15 16 17 18
000
FTUS43 KILX 202100 AAC
TAFSPI
TAF AMD
KSPI 202102Z 2021/2118 26012KT P6SM VCTS SCT030CB BKN250
      TEMPO 2022/2023 4SM TSRA BKN035CB
     FM210100 23008KT P6SM VCSH BKN050
     FM210500 26006KT 6SM BR SCT045
     FM211200 31010KT P6SM SCT035
     FM211500 32014G22KT P6SM SCT040=

USA.gov is the U.S. government's official web portal to all federal, state and local government web resources and services.